Terminal Aerodrome Forecast
Issued by NWS Charleston, WV

Home | Current Version | Previous Version | Text Only | Print | Product List | Glossary On
Versions: 1 2 3 4 5 6 7 8 9 10 11 12 13 14 15 16 17 18 19 20 21 22 23
000
FTUS41 KRLX 012300
TAFBKW
TAF
KBKW 012320Z 0200/0224 23004KT P6SM BKN080
     FM020200 23005KT P6SM SKC
     FM021200 24004KT P6SM BKN035
     FM021500 25008KT P6SM BKN030
     FM021600 25009KT P6SM BKN030
     FM022000 25009KT P6SM VCTS SCT035CB=

USA.gov is the U.S. government's official web portal to all federal, state and local government web resources and services.